sensor_id;sensor_type;location;lat;lon;timestamp;temperature;humidity
17483;DHT22;8858;52.308;20.994;2023-02-28T00:01:57;-0.70;99.90
17483;DHT22;8858;52.308;20.994;2023-02-28T00:04:25;-0.70;99.90
17483;DHT22;8858;52.308;20.994;2023-02-28T00:06:55;-0.70;99.90
17483;DHT22;8858;52.308;20.994;2023-02-28T00:09:23;-0.80;99.90
17483;DHT22;8858;52.308;20.994;2023-02-28T00:11:52;-0.80;99.90
17483;DHT22;8858;52.308;20.994;2023-02-28T00:14:20;-0.80;99.90
17483;DHT22;8858;52.308;20.994;2023-02-28T00:16:50;-0.80;99.90
17483;DHT22;8858;52.308;20.994;2023-02-28T00:19:18;-0.80;99.90
17483;DHT22;8858;52.308;20.994;2023-02-28T00:21:46;-0.90;99.90
17483;DHT22;8858;52.308;20.994;2023-02-28T00:24:16;-0.90;99.90
17483;DHT22;8858;52.308;20.994;2023-02-28T00:26:45;-0.90;99.90
17483;DHT22;8858;52.308;20.994;2023-02-28T00:29:13;-0.90;99.90
17483;DHT22;8858;52.308;20.994;2023-02-28T00:31:43;-0.90;99.90
17483;DHT22;8858;52.308;20.994;2023-02-28T00:34:12;-0.90;99.90
17483;DHT22;8858;52.308;20.994;2023-02-28T00:36:41;-1.00;99.90
17483;DHT22;8858;52.308;20.994;2023-02-28T00:39:13;-1.00;99.90
17483;DHT22;8858;52.308;20.994;2023-02-28T00:41:43;-1.00;99.90
17483;DHT22;8858;52.308;20.994;2023-02-28T00:44:13;-1.00;99.90
17483;DHT22;8858;52.308;20.994;2023-02-28T00:46:42;-1.10;99.90
17483;DHT22;8858;52.308;20.994;2023-02-28T00:49:10;-1.10;99.90
17483;DHT22;8858;52.308;20.994;2023-02-28T00:51:39;-1.10;99.90
17483;DHT22;8858;52.308;20.994;2023-02-28T00:54:08;-1.20;99.90
17483;DHT22;8858;52.308;20.994;2023-02-28T00:56:37;-1.20;99.90
17483;DHT22;8858;52.308;20.994;2023-02-28T00:59:07;-1.20;99.90
17483;DHT22;8858;52.308;20.994;2023-02-28T01:01:36;-1.20;99.90
17483;DHT22;8858;52.308;20.994;2023-02-28T01:04:05;-1.30;99.90
17483;DHT22;8858;52.308;20.994;2023-02-28T01:06:35;-1.30;99.90
17483;DHT22;8858;52.308;20.994;2023-02-28T01:09:05;-1.30;99.90
17483;DHT22;8858;52.308;20.994;2023-02-28T01:11:35;-1.30;99.90
17483;DHT22;8858;52.308;20.994;2023-02-28T01:14:05;-1.30;99.90
17483;DHT22;8858;52.308;20.994;2023-02-28T01:16:34;-1.30;99.90
17483;DHT22;8858;52.308;20.994;2023-02-28T01:19:02;-1.30;99.90
17483;DHT22;8858;52.308;20.994;2023-02-28T01:21:31;-1.40;99.90
17483;DHT22;8858;52.308;20.994;2023-02-28T01:24:04;-1.40;99.90
17483;DHT22;8858;52.308;20.994;2023-02-28T01:26:34;-1.40;99.90
17483;DHT22;8858;52.308;20.994;2023-02-28T01:29:08;-1.40;99.90
17483;DHT22;8858;52.308;20.994;2023-02-28T01:31:38;-1.40;99.90
17483;DHT22;8858;52.308;20.994;2023-02-28T01:34:07;-1.40;99.90
17483;DHT22;8858;52.308;20.994;2023-02-28T01:36:38;-1.50;99.90
17483;DHT22;8858;52.308;20.994;2023-02-28T01:39:07;-1.50;99.90
17483;DHT22;8858;52.308;20.994;2023-02-28T01:41:36;-1.50;99.90
17483;DHT22;8858;52.308;20.994;2023-02-28T01:44:06;-1.50;99.90
17483;DHT22;8858;52.308;20.994;2023-02-28T01:46:37;-1.50;99.90
17483;DHT22;8858;52.308;20.994;2023-02-28T01:49:09;-1.50;99.90
17483;DHT22;8858;52.308;20.994;2023-02-28T01:51:42;-1.50;99.90
17483;DHT22;8858;52.308;20.994;2023-02-28T01:54:17;-1.50;99.90
17483;DHT22;8858;52.308;20.994;2023-02-28T01:56:51;-1.60;99.90
17483;DHT22;8858;52.308;20.994;2023-02-28T01:59:25;-1.50;99.90
17483;DHT22;8858;52.308;20.994;2023-02-28T02:01:56;-1.50;99.90
17483;DHT22;8858;52.308;20.994;2023-02-28T02:04:27;-1.60;99.90
17483;DHT22;8858;52.308;20.994;2023-02-28T02:07:00;-1.60;99.90
17483;DHT22;8858;52.308;20.994;2023-02-28T02:09:29;-1.60;99.90
17483;DHT22;8858;52.308;20.994;2023-02-28T02:11:59;-1.70;99.90
17483;DHT22;8858;52.308;20.994;2023-02-28T02:14:50;-1.70;99.90
17483;DHT22;8858;52.308;20.994;2023-02-28T02:17:32;-1.70;99.90
17483;DHT22;8858;52.308;20.994;2023-02-28T02:23:33;-1.70;99.90
17483;DHT22;8858;52.308;20.994;2023-02-28T02:26:16;-1.70;99.90
17483;DHT22;8858;52.308;20.994;2023-02-28T02:29:04;-1.70;99.90
17483;DHT22;8858;52.308;20.994;2023-02-28T02:32:07;-1.80;99.90
17483;DHT22;8858;52.308;20.994;2023-02-28T02:34:42;-1.80;99.90
17483;DHT22;8858;52.308;20.994;2023-02-28T02:37:26;-1.90;99.90
17483;DHT22;8858;52.308;20.994;2023-02-28T02:40:03;-1.90;99.90
17483;DHT22;8858;52.308;20.994;2023-02-28T02:42:42;-1.90;99.90
17483;DHT22;8858;52.308;20.994;2023-02-28T02:45:17;-1.90;99.90
17483;DHT22;8858;52.308;20.994;2023-02-28T02:47:48;-2.00;99.90
17483;DHT22;8858;52.308;20.994;2023-02-28T02:50:22;-2.00;99.90
17483;DHT22;8858;52.308;20.994;2023-02-28T02:52:59;-2.00;99.90
17483;DHT22;8858;52.308;20.994;2023-02-28T02:55:31;-2.00;99.90
17483;DHT22;8858;52.308;20.994;2023-02-28T02:58:05;-2.00;99.90
17483;DHT22;8858;52.308;20.994;2023-02-28T03:00:39;-2.00;99.90
17483;DHT22;8858;52.308;20.994;2023-02-28T03:03:12;-2.00;99.90
17483;DHT22;8858;52.308;20.994;2023-02-28T03:05:47;-2.00;99.90
17483;DHT22;8858;52.308;20.994;2023-02-28T03:08:39;-2.10;99.90
17483;DHT22;8858;52.308;20.994;2023-02-28T03:11:12;-2.00;99.90
17483;DHT22;8858;52.308;20.994;2023-02-28T03:13:54;-2.10;99.90
17483;DHT22;8858;52.308;20.994;2023-02-28T03:16:36;-2.10;99.90
17483;DHT22;8858;52.308;20.994;2023-02-28T03:19:26;-2.10;99.90
17483;DHT22;8858;52.308;20.994;2023-02-28T03:22:11;-2.10;99.90
17483;DHT22;8858;52.308;20.994;2023-02-28T03:24:48;-2.20;99.90
17483;DHT22;8858;52.308;20.994;2023-02-28T03:27:24;-2.20;99.90
17483;DHT22;8858;52.308;20.994;2023-02-28T03:29:58;-2.10;99.90
17483;DHT22;8858;52.308;20.994;2023-02-28T03:32:35;-2.20;99.90
17483;DHT22;8858;52.308;20.994;2023-02-28T03:35:09;-2.30;99.90
17483;DHT22;8858;52.308;20.994;2023-02-28T03:37:42;-2.30;99.90
17483;DHT22;8858;52.308;20.994;2023-02-28T03:40:15;-2.30;99.90
17483;DHT22;8858;52.308;20.994;2023-02-28T03:42:51;-2.30;99.90
17483;DHT22;8858;52.308;20.994;2023-02-28T03:45:24;-2.30;99.90
17483;DHT22;8858;52.308;20.994;2023-02-28T03:47:58;-2.30;99.90
17483;DHT22;8858;52.308;20.994;2023-02-28T03:50:34;-2.40;99.90
17483;DHT22;8858;52.308;20.994;2023-02-28T03:53:08;-2.30;99.90
17483;DHT22;8858;52.308;20.994;2023-02-28T03:55:42;-2.30;99.90
17483;DHT22;8858;52.308;20.994;2023-02-28T03:58:19;-2.30;99.90
17483;DHT22;8858;52.308;20.994;2023-02-28T04:00:55;-2.30;99.90
17483;DHT22;8858;52.308;20.994;2023-02-28T04:03:26;-2.40;99.90
17483;DHT22;8858;52.308;20.994;2023-02-28T04:05:55;-2.40;99.90
17483;DHT22;8858;52.308;20.994;2023-02-28T04:08:26;-2.40;99.90
17483;DHT22;8858;52.308;20.994;2023-02-28T04:11:00;-2.40;99.90
17483;DHT22;8858;52.308;20.994;2023-02-28T04:13:30;-2.40;99.90
17483;DHT22;8858;52.308;20.994;2023-02-28T04:15:59;-2.50;99.90
17483;DHT22;8858;52.308;20.994;2023-02-28T04:18:27;-2.50;99.90
17483;DHT22;8858;52.308;20.994;2023-02-28T04:21:00;-2.50;99.90
17483;DHT22;8858;52.308;20.994;2023-02-28T04:23:30;-2.50;99.90
17483;DHT22;8858;52.308;20.994;2023-02-28T04:26:01;-2.60;99.90
17483;DHT22;8858;52.308;20.994;2023-02-28T04:28:30;-2.50;99.90
17483;DHT22;8858;52.308;20.994;2023-02-28T04:31:00;-2.60;99.90
17483;DHT22;8858;52.308;20.994;2023-02-28T04:33:31;-2.60;99.90
17483;DHT22;8858;52.308;20.994;2023-02-28T04:36:00;-2.60;99.90
17483;DHT22;8858;52.308;20.994;2023-02-28T04:38:35;-2.50;99.90
17483;DHT22;8858;52.308;20.994;2023-02-28T04:41:04;-2.50;99.90
17483;DHT22;8858;52.308;20.994;2023-02-28T04:43:32;-2.50;99.90
17483;DHT22;8858;52.308;20.994;2023-02-28T04:46:03;-2.50;99.90
17483;DHT22;8858;52.308;20.994;2023-02-28T04:48:34;-2.50;99.90
17483;DHT22;8858;52.308;20.994;2023-02-28T04:51:04;-2.50;99.90
17483;DHT22;8858;52.308;20.994;2023-02-28T04:53:35;-2.50;99.90
17483;DHT22;8858;52.308;20.994;2023-02-28T04:56:07;-2.60;99.90
17483;DHT22;8858;52.308;20.994;2023-02-28T04:58:37;-2.50;99.90
17483;DHT22;8858;52.308;20.994;2023-02-28T05:01:06;-2.60;99.90
17483;DHT22;8858;52.308;20.994;2023-02-28T05:03:39;-2.50;99.90
17483;DHT22;8858;52.308;20.994;2023-02-28T05:06:08;-2.50;99.90
17483;DHT22;8858;52.308;20.994;2023-02-28T05:08:41;-2.60;99.90
17483;DHT22;8858;52.308;20.994;2023-02-28T05:11:15;-2.50;99.90
17483;DHT22;8858;52.308;20.994;2023-02-28T05:13:49;-2.60;99.90
17483;DHT22;8858;52.308;20.994;2023-02-28T05:16:17;-2.60;99.90
17483;DHT22;8858;52.308;20.994;2023-02-28T05:18:50;-2.60;99.90
17483;DHT22;8858;52.308;20.994;2023-02-28T05:21:27;-2.60;99.90
17483;DHT22;8858;52.308;20.994;2023-02-28T05:24:00;-2.60;99.90
17483;DHT22;8858;52.308;20.994;2023-02-28T05:26:30;-2.60;99.90
17483;DHT22;8858;52.308;20.994;2023-02-28T05:28:58;-2.60;99.90
17483;DHT22;8858;52.308;20.994;2023-02-28T05:31:27;-2.60;99.90
17483;DHT22;8858;52.308;20.994;2023-02-28T05:33:55;-2.60;99.90
17483;DHT22;8858;52.308;20.994;2023-02-28T05:36:27;-2.70;99.90
17483;DHT22;8858;52.308;20.994;2023-02-28T05:38:55;-2.70;99.90
17483;DHT22;8858;52.308;20.994;2023-02-28T05:41:25;-2.70;99.90
17483;DHT22;8858;52.308;20.994;2023-02-28T05:43:57;-2.70;99.90
17483;DHT22;8858;52.308;20.994;2023-02-28T05:46:27;-2.60;99.90
17483;DHT22;8858;52.308;20.994;2023-02-28T05:48:55;-2.60;99.90
17483;DHT22;8858;52.308;20.994;2023-02-28T05:51:27;-2.60;99.90
17483;DHT22;8858;52.308;20.994;2023-02-28T05:53:59;-2.60;99.90
17483;DHT22;8858;52.308;20.994;2023-02-28T05:56:29;-2.60;99.90
17483;DHT22;8858;52.308;20.994;2023-02-28T05:58:57;-2.60;99.90
17483;DHT22;8858;52.308;20.994;2023-02-28T06:01:32;-2.60;99.90
17483;DHT22;8858;52.308;20.994;2023-02-28T06:04:02;-2.60;99.90
17483;DHT22;8858;52.308;20.994;2023-02-28T06:06:31;-2.60;99.90
17483;DHT22;8858;52.308;20.994;2023-02-28T06:09:03;-2.60;99.90
17483;DHT22;8858;52.308;20.994;2023-02-28T06:11:33;-2.60;99.90
17483;DHT22;8858;52.308;20.994;2023-02-28T06:14:02;-2.50;99.90
17483;DHT22;8858;52.308;20.994;2023-02-28T06:16:32;-2.70;99.90
17483;DHT22;8858;52.308;20.994;2023-02-28T06:19:04;-2.50;99.90
17483;DHT22;8858;52.308;20.994;2023-02-28T06:21:33;-2.40;99.90
17483;DHT22;8858;52.308;20.994;2023-02-28T06:24:01;-2.40;99.90
17483;DHT22;8858;52.308;20.994;2023-02-28T06:26:33;-2.40;99.90
17483;DHT22;8858;52.308;20.994;2023-02-28T06:29:02;-2.30;99.90
17483;DHT22;8858;52.308;20.994;2023-02-28T06:31:31;-2.30;99.90
17483;DHT22;8858;52.308;20.994;2023-02-28T06:34:00;-2.20;99.90
17483;DHT22;8858;52.308;20.994;2023-02-28T06:36:29;-2.20;99.90
17483;DHT22;8858;52.308;20.994;2023-02-28T06:38:57;-2.10;99.90
17483;DHT22;8858;52.308;20.994;2023-02-28T06:41:26;-2.10;99.90
17483;DHT22;8858;52.308;20.994;2023-02-28T06:43:58;-2.10;99.90
17483;DHT22;8858;52.308;20.994;2023-02-28T06:46:27;-2.00;99.90
17483;DHT22;8858;52.308;20.994;2023-02-28T06:48:56;-1.90;99.90
17483;DHT22;8858;52.308;20.994;2023-02-28T06:51:26;-1.90;99.90
17483;DHT22;8858;52.308;20.994;2023-02-28T06:53:54;-1.80;99.90
17483;DHT22;8858;52.308;20.994;2023-02-28T06:56:24;-1.70;99.90
17483;DHT22;8858;52.308;20.994;2023-02-28T06:58:53;-1.60;99.90
17483;DHT22;8858;52.308;20.994;2023-02-28T07:01:23;-1.60;99.90
17483;DHT22;8858;52.308;20.994;2023-02-28T07:03:55;-1.50;99.90
17483;DHT22;8858;52.308;20.994;2023-02-28T07:06:24;-1.40;99.90
17483;DHT22;8858;52.308;20.994;2023-02-28T07:08:53;-1.30;99.90
17483;DHT22;8858;52.308;20.994;2023-02-28T07:11:23;-1.20;99.90
17483;DHT22;8858;52.308;20.994;2023-02-28T07:13:52;-1.20;99.90
17483;DHT22;8858;52.308;20.994;2023-02-28T07:16:26;-1.00;99.90
17483;DHT22;8858;52.308;20.994;2023-02-28T07:18:56;-0.90;99.90
17483;DHT22;8858;52.308;20.994;2023-02-28T07:21:24;-0.90;99.90
17483;DHT22;8858;52.308;20.994;2023-02-28T07:23:53;-0.80;99.90
17483;DHT22;8858;52.308;20.994;2023-02-28T07:26:22;-0.70;99.90
17483;DHT22;8858;52.308;20.994;2023-02-28T07:28:50;-0.60;99.90
17483;DHT22;8858;52.308;20.994;2023-02-28T07:31:20;-0.60;99.90
17483;DHT22;8858;52.308;20.994;2023-02-28T07:33:54;-0.50;99.90
17483;DHT22;8858;52.308;20.994;2023-02-28T07:36:23;-0.40;99.90
17483;DHT22;8858;52.308;20.994;2023-02-28T07:38:55;-0.30;99.90
17483;DHT22;8858;52.308;20.994;2023-02-28T07:41:24;-0.20;99.90
17483;DHT22;8858;52.308;20.994;2023-02-28T07:43:55;-0.10;99.90
17483;DHT22;8858;52.308;20.994;2023-02-28T07:46:27;-0.10;99.90
17483;DHT22;8858;52.308;20.994;2023-02-28T07:48:58;0.10;99.90
17483;DHT22;8858;52.308;20.994;2023-02-28T07:51:26;0.20;99.90
17483;DHT22;8858;52.308;20.994;2023-02-28T07:53:55;0.30;99.90
17483;DHT22;8858;52.308;20.994;2023-02-28T07:56:24;0.40;99.90
17483;DHT22;8858;52.308;20.994;2023-02-28T07:58:53;0.50;99.90
17483;DHT22;8858;52.308;20.994;2023-02-28T08:01:22;0.60;99.90
17483;DHT22;8858;52.308;20.994;2023-02-28T08:03:52;0.60;99.90
17483;DHT22;8858;52.308;20.994;2023-02-28T08:06:24;0.60;99.90
17483;DHT22;8858;52.308;20.994;2023-02-28T08:08:54;0.70;99.90
17483;DHT22;8858;52.308;20.994;2023-02-28T08:11:23;0.70;99.90
17483;DHT22;8858;52.308;20.994;2023-02-28T08:13:51;0.70;99.90
17483;DHT22;8858;52.308;20.994;2023-02-28T08:16:20;0.70;99.90
17483;DHT22;8858;52.308;20.994;2023-02-28T08:18:49;0.70;99.90
17483;DHT22;8858;52.308;20.994;2023-02-28T08:21:19;0.80;99.90
17483;DHT22;8858;52.308;20.994;2023-02-28T08:23:52;0.90;99.90
17483;DHT22;8858;52.308;20.994;2023-02-28T08:26:20;0.90;99.90
17483;DHT22;8858;52.308;20.994;2023-02-28T08:28:50;1.10;99.90
17483;DHT22;8858;52.308;20.994;2023-02-28T08:31:19;1.10;99.90
17483;DHT22;8858;52.308;20.994;2023-02-28T08:33:48;1.20;99.90
17483;DHT22;8858;52.308;20.994;2023-02-28T08:36:20;1.10;99.90
17483;DHT22;8858;52.308;20.994;2023-02-28T08:38:49;1.10;99.90
17483;DHT22;8858;52.308;20.994;2023-02-28T08:41:19;1.20;99.90
17483;DHT22;8858;52.308;20.994;2023-02-28T08:43:48;1.20;99.90
17483;DHT22;8858;52.308;20.994;2023-02-28T08:46:16;1.20;99.90
17483;DHT22;8858;52.308;20.994;2023-02-28T08:48:51;1.20;99.90
17483;DHT22;8858;52.308;20.994;2023-02-28T08:51:21;1.20;99.90
17483;DHT22;8858;52.308;20.994;2023-02-28T08:53:55;1.30;99.90
17483;DHT22;8858;52.308;20.994;2023-02-28T08:56:28;1.40;99.90
17483;DHT22;8858;52.308;20.994;2023-02-28T08:58:58;1.40;99.90
17483;DHT22;8858;52.308;20.994;2023-02-28T09:01:27;1.50;99.90
17483;DHT22;8858;52.308;20.994;2023-02-28T09:03:59;1.50;99.90
17483;DHT22;8858;52.308;20.994;2023-02-28T09:06:30;1.50;99.90
17483;DHT22;8858;52.308;20.994;2023-02-28T09:09:00;1.50;99.90
17483;DHT22;8858;52.308;20.994;2023-02-28T09:11:35;1.60;99.90
17483;DHT22;8858;52.308;20.994;2023-02-28T09:14:04;1.60;99.90
17483;DHT22;8858;52.308;20.994;2023-02-28T09:16:33;1.70;99.90
17483;DHT22;8858;52.308;20.994;2023-02-28T09:19:02;1.70;99.90
17483;DHT22;8858;52.308;20.994;2023-02-28T09:21:33;1.70;99.90
17483;DHT22;8858;52.308;20.994;2023-02-28T09:24:02;1.60;99.90
17483;DHT22;8858;52.308;20.994;2023-02-28T09:26:31;1.70;99.90
17483;DHT22;8858;52.308;20.994;2023-02-28T09:29:15;1.60;99.90
17483;DHT22;8858;52.308;20.994;2023-02-28T09:31:45;1.60;99.90
17483;DHT22;8858;52.308;20.994;2023-02-28T09:34:16;1.50;99.90
17483;DHT22;8858;52.308;20.994;2023-02-28T09:36:45;1.50;99.90
17483;DHT22;8858;52.308;20.994;2023-02-28T09:39:15;1.50;99.90
17483;DHT22;8858;52.308;20.994;2023-02-28T09:41:46;1.70;99.90
17483;DHT22;8858;52.308;20.994;2023-02-28T09:44:26;1.70;99.90
17483;DHT22;8858;52.308;20.994;2023-02-28T09:47:01;1.80;99.90
17483;DHT22;8858;52.308;20.994;2023-02-28T09:49:38;1.80;99.90
17483;DHT22;8858;52.308;20.994;2023-02-28T09:52:12;1.80;99.90
17483;DHT22;8858;52.308;20.994;2023-02-28T09:54:41;1.80;99.90
17483;DHT22;8858;52.308;20.994;2023-02-28T09:57:18;1.80;99.90
17483;DHT22;8858;52.308;20.994;2023-02-28T10:00:02;1.90;99.90
17483;DHT22;8858;52.308;20.994;2023-02-28T10:02:59;2.00;99.90
17483;DHT22;8858;52.308;20.994;2023-02-28T10:05:33;2.00;99.90
17483;DHT22;8858;52.308;20.994;2023-02-28T10:08:09;2.00;99.90
17483;DHT22;8858;52.308;20.994;2023-02-28T10:10:44;2.00;99.90
17483;DHT22;8858;52.308;20.994;2023-02-28T10:13:19;2.00;99.90
17483;DHT22;8858;52.308;20.994;2023-02-28T10:15:58;2.10;99.90
17483;DHT22;8858;52.308;20.994;2023-02-28T10:18:30;2.10;99.90
17483;DHT22;8858;52.308;20.994;2023-02-28T10:21:03;2.00;99.90
17483;DHT22;8858;52.308;20.994;2023-02-28T10:23:34;1.90;99.90
17483;DHT22;8858;52.308;20.994;2023-02-28T10:26:12;1.80;99.90
17483;DHT22;8858;52.308;20.994;2023-02-28T10:28:43;1.80;99.90
17483;DHT22;8858;52.308;20.994;2023-02-28T10:31:18;1.90;99.90
17483;DHT22;8858;52.308;20.994;2023-02-28T10:33:48;1.80;99.90
17483;DHT22;8858;52.308;20.994;2023-02-28T10:36:20;1.90;99.90
17483;DHT22;8858;52.308;20.994;2023-02-28T10:38:48;2.00;99.90
17483;DHT22;8858;52.308;20.994;2023-02-28T10:41:27;2.10;99.90
17483;DHT22;8858;52.308;20.994;2023-02-28T10:44:15;2.20;99.90
17483;DHT22;8858;52.308;20.994;2023-02-28T10:46:48;2.30;99.90
17483;DHT22;8858;52.308;20.994;2023-02-28T10:49:21;2.30;99.90
17483;DHT22;8858;52.308;20.994;2023-02-28T10:51:53;2.40;99.90
17483;DHT22;8858;52.308;20.994;2023-02-28T10:54:27;2.50;99.90
17483;DHT22;8858;52.308;20.994;2023-02-28T10:57:12;2.50;99.90
17483;DHT22;8858;52.308;20.994;2023-02-28T10:59:44;2.60;99.90
17483;DHT22;8858;52.308;20.994;2023-02-28T11:02:32;2.60;99.90
17483;DHT22;8858;52.308;20.994;2023-02-28T11:05:02;2.60;99.90
17483;DHT22;8858;52.308;20.994;2023-02-28T11:07:51;2.70;99.90
17483;DHT22;8858;52.308;20.994;2023-02-28T11:10:25;2.80;99.90
17483;DHT22;8858;52.308;20.994;2023-02-28T11:12:55;2.80;99.90
17483;DHT22;8858;52.308;20.994;2023-02-28T11:15:53;2.80;99.90
17483;DHT22;8858;52.308;20.994;2023-02-28T11:18:30;2.80;99.90
17483;DHT22;8858;52.308;20.994;2023-02-28T11:21:02;2.70;99.90
17483;DHT22;8858;52.308;20.994;2023-02-28T11:23:36;2.80;99.90
17483;DHT22;8858;52.308;20.994;2023-02-28T11:26:06;2.90;99.90
17483;DHT22;8858;52.308;20.994;2023-02-28T11:28:38;3.00;99.90
17483;DHT22;8858;52.308;20.994;2023-02-28T11:31:25;3.10;99.90
17483;DHT22;8858;52.308;20.994;2023-02-28T11:33:58;3.20;99.90
17483;DHT22;8858;52.308;20.994;2023-02-28T11:36:29;3.30;99.90
17483;DHT22;8858;52.308;20.994;2023-02-28T11:39:00;3.50;99.90
17483;DHT22;8858;52.308;20.994;2023-02-28T11:42:00;3.60;99.90
17483;DHT22;8858;52.308;20.994;2023-02-28T11:44:39;3.70;99.90
17483;DHT22;8858;52.308;20.994;2023-02-28T11:47:17;3.90;99.90
17483;DHT22;8858;52.308;20.994;2023-02-28T11:49:57;4.00;99.90
17483;DHT22;8858;52.308;20.994;2023-02-28T11:52:36;4.00;99.90
17483;DHT22;8858;52.308;20.994;2023-02-28T11:55:16;3.90;99.90
17483;DHT22;8858;52.308;20.994;2023-02-28T11:57:59;3.90;99.90
17483;DHT22;8858;52.308;20.994;2023-02-28T12:00:40;4.00;99.90
17483;DHT22;8858;52.308;20.994;2023-02-28T12:03:21;4.10;99.90
17483;DHT22;8858;52.308;20.994;2023-02-28T12:06:02;4.20;99.90
17483;DHT22;8858;52.308;20.994;2023-02-28T12:08:46;4.20;99.90
17483;DHT22;8858;52.308;20.994;2023-02-28T12:11:24;4.20;99.90
17483;DHT22;8858;52.308;20.994;2023-02-28T12:14:17;4.30;99.90
17483;DHT22;8858;52.308;20.994;2023-02-28T12:17:02;4.40;99.90
17483;DHT22;8858;52.308;20.994;2023-02-28T12:19:39;4.50;99.90
17483;DHT22;8858;52.308;20.994;2023-02-28T12:22:29;4.50;99.90
17483;DHT22;8858;52.308;20.994;2023-02-28T12:25:21;4.70;99.90
17483;DHT22;8858;52.308;20.994;2023-02-28T12:27:52;4.80;99.90
17483;DHT22;8858;52.308;20.994;2023-02-28T12:30:24;4.90;99.90
17483;DHT22;8858;52.308;20.994;2023-02-28T12:32:55;5.00;99.90
17483;DHT22;8858;52.308;20.994;2023-02-28T12:35:33;5.10;99.90
17483;DHT22;8858;52.308;20.994;2023-02-28T12:38:09;5.30;99.90
17483;DHT22;8858;52.308;20.994;2023-02-28T12:40:45;5.40;99.90
17483;DHT22;8858;52.308;20.994;2023-02-28T12:43:18;5.50;99.90
17483;DHT22;8858;52.308;20.994;2023-02-28T12:45:51;5.70;99.90
17483;DHT22;8858;52.308;20.994;2023-02-28T12:48:29;5.90;99.90
17483;DHT22;8858;52.308;20.994;2023-02-28T12:50:59;6.10;99.90
17483;DHT22;8858;52.308;20.994;2023-02-28T12:53:42;6.20;99.90
17483;DHT22;8858;52.308;20.994;2023-02-28T12:56:19;6.30;99.90
17483;DHT22;8858;52.308;20.994;2023-02-28T12:58:52;6.40;99.90
17483;DHT22;8858;52.308;20.994;2023-02-28T13:01:36;6.20;99.90
17483;DHT22;8858;52.308;20.994;2023-02-28T13:04:42;6.20;99.90
17483;DHT22;8858;52.308;20.994;2023-02-28T13:07:40;6.20;99.90
17483;DHT22;8858;52.308;20.994;2023-02-28T13:10:16;6.20;99.90
17483;DHT22;8858;52.308;20.994;2023-02-28T13:12:50;6.20;99.90
17483;DHT22;8858;52.308;20.994;2023-02-28T13:15:22;6.30;99.90
17483;DHT22;8858;52.308;20.994;2023-02-28T13:17:53;6.50;99.90
17483;DHT22;8858;52.308;20.994;2023-02-28T13:20:25;6.70;99.90
17483;DHT22;8858;52.308;20.994;2023-02-28T13:22:55;6.70;99.90
17483;DHT22;8858;52.308;20.994;2023-02-28T13:25:53;6.70;99.90
17483;DHT22;8858;52.308;20.994;2023-02-28T13:34:49;6.30;99.90
17483;DHT22;8858;52.308;20.994;2023-02-28T13:37:42;6.40;99.90
17483;DHT22;8858;52.308;20.994;2023-02-28T13:40:31;6.40;99.90
17483;DHT22;8858;52.308;20.994;2023-02-28T13:43:08;6.10;99.90
17483;DHT22;8858;52.308;20.994;2023-02-28T13:45:38;6.10;99.90
17483;DHT22;8858;52.308;20.994;2023-02-28T13:48:18;6.10;99.90
17483;DHT22;8858;52.308;20.994;2023-02-28T13:50:47;6.20;99.90
17483;DHT22;8858;52.308;20.994;2023-02-28T13:56:27;6.20;99.90
17483;DHT22;8858;52.308;20.994;2023-02-28T13:59:14;6.20;99.90
17483;DHT22;8858;52.308;20.994;2023-02-28T14:01:59;6.10;99.90
17483;DHT22;8858;52.308;20.994;2023-02-28T14:04:48;6.10;99.90
17483;DHT22;8858;52.308;20.994;2023-02-28T14:07:21;6.00;99.90
17483;DHT22;8858;52.308;20.994;2023-02-28T14:09:57;5.90;99.90
17483;DHT22;8858;52.308;20.994;2023-02-28T14:12:52;5.60;99.90
17483;DHT22;8858;52.308;20.994;2023-02-28T14:15:46;5.40;99.90
17483;DHT22;8858;52.308;20.994;2023-02-28T14:18:22;5.30;99.90
17483;DHT22;8858;52.308;20.994;2023-02-28T14:20:57;5.20;99.90
17483;DHT22;8858;52.308;20.994;2023-02-28T14:23:48;5.20;99.90
17483;DHT22;8858;52.308;20.994;2023-02-28T14:26:29;5.10;99.90
17483;DHT22;8858;52.308;20.994;2023-02-28T14:29:18;5.10;99.90
17483;DHT22;8858;52.308;20.994;2023-02-28T14:32:02;5.00;99.90
17483;DHT22;8858;52.308;20.994;2023-02-28T14:34:39;4.90;99.90
17483;DHT22;8858;52.308;20.994;2023-02-28T14:37:14;4.80;99.90
17483;DHT22;8858;52.308;20.994;2023-02-28T14:39:43;4.80;99.90
17483;DHT22;8858;52.308;20.994;2023-02-28T14:42:30;4.90;99.90
17483;DHT22;8858;52.308;20.994;2023-02-28T14:45:02;4.80;99.90
17483;DHT22;8858;52.308;20.994;2023-02-28T14:47:33;4.70;99.90
17483;DHT22;8858;52.308;20.994;2023-02-28T14:50:03;4.60;99.90
17483;DHT22;8858;52.308;20.994;2023-02-28T14:52:35;4.60;99.90
17483;DHT22;8858;52.308;20.994;2023-02-28T14:55:06;4.50;99.90
17483;DHT22;8858;52.308;20.994;2023-02-28T14:57:51;4.50;99.90
17483;DHT22;8858;52.308;20.994;2023-02-28T15:00:23;4.40;99.90
17483;DHT22;8858;52.308;20.994;2023-02-28T15:02:54;4.40;99.90
17483;DHT22;8858;52.308;20.994;2023-02-28T15:05:28;4.40;99.90
17483;DHT22;8858;52.308;20.994;2023-02-28T15:08:05;4.30;99.90
17483;DHT22;8858;52.308;20.994;2023-02-28T15:10:34;4.30;99.90
17483;DHT22;8858;52.308;20.994;2023-02-28T15:13:07;4.20;99.90
17483;DHT22;8858;52.308;20.994;2023-02-28T15:15:45;4.20;99.90
17483;DHT22;8858;52.308;20.994;2023-02-28T15:18:34;4.30;99.90
17483;DHT22;8858;52.308;20.994;2023-02-28T15:21:13;4.20;99.90
17483;DHT22;8858;52.308;20.994;2023-02-28T15:23:46;4.20;99.90
17483;DHT22;8858;52.308;20.994;2023-02-28T15:26:23;4.10;99.90
17483;DHT22;8858;52.308;20.994;2023-02-28T15:28:59;4.10;99.90
17483;DHT22;8858;52.308;20.994;2023-02-28T15:31:31;4.10;99.90
17483;DHT22;8858;52.308;20.994;2023-02-28T15:34:27;4.00;99.90
17483;DHT22;8858;52.308;20.994;2023-02-28T15:37:27;3.90;99.90
17483;DHT22;8858;52.308;20.994;2023-02-28T15:39:58;3.90;99.90
17483;DHT22;8858;52.308;20.994;2023-02-28T15:42:31;3.80;99.90
17483;DHT22;8858;52.308;20.994;2023-02-28T15:45:00;3.80;99.90
17483;DHT22;8858;52.308;20.994;2023-02-28T15:47:30;3.80;99.90
17483;DHT22;8858;52.308;20.994;2023-02-28T15:50:02;3.80;99.90
17483;DHT22;8858;52.308;20.994;2023-02-28T15:52:38;3.70;99.90
17483;DHT22;8858;52.308;20.994;2023-02-28T15:55:09;3.70;99.90
17483;DHT22;8858;52.308;20.994;2023-02-28T15:57:40;3.60;99.90
17483;DHT22;8858;52.308;20.994;2023-02-28T16:00:13;3.60;99.90
17483;DHT22;8858;52.308;20.994;2023-02-28T16:02:44;3.60;99.90
17483;DHT22;8858;52.308;20.994;2023-02-28T16:05:25;3.50;99.90
17483;DHT22;8858;52.308;20.994;2023-02-28T16:07:59;3.50;99.90
17483;DHT22;8858;52.308;20.994;2023-02-28T16:10:29;3.40;99.90
17483;DHT22;8858;52.308;20.994;2023-02-28T16:12:58;3.40;99.90
17483;DHT22;8858;52.308;20.994;2023-02-28T16:15:28;3.40;99.90
17483;DHT22;8858;52.308;20.994;2023-02-28T16:17:57;3.30;99.90
17483;DHT22;8858;52.308;20.994;2023-02-28T16:20:29;3.20;99.90
17483;DHT22;8858;52.308;20.994;2023-02-28T16:22:58;3.10;99.90
17483;DHT22;8858;52.308;20.994;2023-02-28T16:25:34;3.10;99.90
17483;DHT22;8858;52.308;20.994;2023-02-28T16:28:03;3.00;99.90
17483;DHT22;8858;52.308;20.994;2023-02-28T16:30:32;2.90;99.90
17483;DHT22;8858;52.308;20.994;2023-02-28T16:33:01;2.80;99.90
17483;DHT22;8858;52.308;20.994;2023-02-28T16:35:31;2.80;99.90